createdAt,value
2018-09-22T00:01:43.821Z,440.87
2018-09-22T00:04:12.299Z,461.17
2018-09-22T00:06:40.813Z,502.13
2018-09-22T00:09:10.562Z,484.50
2018-09-22T00:11:39.157Z,501.87
2018-09-22T00:14:07.720Z,466.53
2018-09-22T00:16:36.212Z,456.77
2018-09-22T00:19:04.865Z,429.37
2018-09-22T00:21:33.338Z,454.63
2018-09-22T00:24:01.789Z,447.43
2018-09-22T00:26:30.271Z,443.33
2018-09-22T00:28:58.803Z,422.77
2018-09-22T00:31:27.372Z,426.80
2018-09-22T00:33:55.940Z,404.10
2018-09-22T00:36:24.472Z,391.83
2018-09-22T00:38:52.999Z,395.90
2018-09-22T00:41:21.687Z,370.70
2018-09-22T00:43:50.248Z,349.37
2018-09-22T00:46:18.778Z,346.03
2018-09-22T00:48:47.236Z,316.97
2018-09-22T00:51:15.733Z,344.23
2018-09-22T00:53:44.238Z,321.83
2018-09-22T00:56:12.751Z,324.40
2018-09-22T00:58:41.272Z,347.03
2018-09-22T01:01:10.319Z,329.23
2018-09-22T01:03:38.805Z,307.90
2018-09-22T01:06:07.620Z,309.30
2018-09-22T01:08:36.178Z,317.00
2018-09-22T01:11:04.703Z,301.83
2018-09-22T01:13:33.232Z,276.27
2018-09-22T01:16:01.786Z,286.70
2018-09-22T01:18:30.434Z,271.10
2018-09-22T01:20:58.894Z,275.80
2018-09-22T01:23:27.396Z,295.80
2018-09-22T01:25:55.983Z,296.17
2018-09-22T01:28:24.458Z,331.30
2018-09-22T01:30:53.754Z,307.37
2018-09-22T01:33:22.221Z,324.33
2018-09-22T01:35:50.730Z,317.17
2018-09-22T01:38:19.231Z,318.27
2018-09-22T01:40:47.727Z,305.17
2018-09-22T01:43:16.339Z,293.50
2018-09-22T01:45:44.859Z,279.20
2018-09-22T01:48:13.460Z,322.17
2018-09-22T01:50:41.983Z,306.53
2018-09-22T01:53:10.540Z,308.47
2018-09-22T01:55:39.023Z,337.37
2018-09-22T01:58:07.515Z,338.83
2018-09-22T02:00:36.039Z,332.50
2018-09-22T02:03:04.530Z,332.93
2018-09-22T02:05:33.201Z,340.47
2018-09-22T02:08:01.737Z,330.33
2018-09-22T02:10:30.237Z,336.13
2018-09-22T02:12:58.785Z,345.33
2018-09-22T02:15:27.439Z,348.47
2018-09-22T02:17:55.939Z,363.47
2018-09-22T02:20:24.507Z,358.40
2018-09-22T02:22:52.968Z,361.33
2018-09-22T02:25:21.481Z,363.53
2018-09-22T02:27:49.965Z,367.13
2018-09-22T02:30:18.421Z,359.30
2018-09-22T02:32:47.038Z,354.53
2018-09-22T02:35:15.509Z,372.07
2018-09-22T02:37:44.048Z,347.93
2018-09-22T02:40:12.539Z,396.97
2018-09-22T02:42:41.048Z,393.83
2018-09-22T02:45:09.502Z,413.33
2018-09-22T02:47:38.090Z,398.10
2018-09-22T02:50:06.632Z,412.33
2018-09-22T02:52:35.175Z,383.87
2018-09-22T02:55:03.700Z,396.83
2018-09-22T02:57:32.204Z,326.70
2018-09-22T03:00:00.665Z,320.33
2018-09-22T03:02:29.152Z,339.40
2018-09-22T03:04:57.651Z,359.47
2018-09-22T03:07:26.125Z,340.90
2018-09-22T03:09:54.624Z,341.80
2018-09-22T03:12:23.120Z,349.50
2018-09-22T03:14:51.765Z,358.50
2018-09-22T03:17:20.310Z,389.53
2018-09-22T03:19:48.797Z,439.83
2018-09-22T03:22:17.312Z,460.20
2018-09-22T03:24:45.779Z,465.97
2018-09-22T03:27:14.319Z,476.13
2018-09-22T03:29:42.813Z,468.03
2018-09-22T03:32:11.519Z,475.87
2018-09-22T03:34:40.009Z,492.23
2018-09-22T03:37:08.465Z,487.20
2018-09-22T03:39:36.953Z,486.47
2018-09-22T03:42:05.623Z,477.83
2018-09-22T03:44:34.071Z,495.63
2018-09-22T03:47:02.581Z,482.70
2018-09-22T03:49:31.076Z,500.90
2018-09-22T03:51:59.586Z,488.33
2018-09-22T03:54:34.555Z,475.50
2018-09-22T03:57:03.090Z,460.77
2018-09-22T03:59:31.648Z,461.10
2018-09-22T04:02:00.095Z,412.30
2018-09-22T04:04:28.536Z,400.93
2018-09-22T04:06:57.025Z,407.77
2018-09-22T04:09:25.503Z,406.60
2018-09-22T04:11:54.003Z,377.83
2018-09-22T04:14:22.537Z,361.57
2018-09-22T04:16:51.032Z,332.43
2018-09-22T04:19:19.516Z,340.10
2018-09-22T04:21:47.963Z,360.47
2018-09-22T04:24:19.497Z,361.77
2018-09-22T04:26:49.725Z,332.60
2018-09-22T04:29:18.753Z,354.60
2018-09-22T04:31:47.340Z,335.60
2018-09-22T04:34:15.799Z,372.03
2018-09-22T04:36:44.773Z,359.40
2018-09-22T04:39:13.260Z,322.87
2018-09-22T04:41:43.223Z,342.37
2018-09-22T04:44:11.682Z,330.63
2018-09-22T04:46:40.171Z,344.30
2018-09-22T04:49:08.840Z,348.83
2018-09-22T04:51:37.288Z,357.43
2018-09-22T04:54:05.782Z,334.93
2018-09-22T04:56:34.276Z,359.37
2018-09-22T04:59:02.744Z,357.50
2018-09-22T05:01:31.248Z,363.47
2018-09-22T05:03:59.698Z,338.63
2018-09-22T05:06:28.214Z,347.90
2018-09-22T05:08:56.688Z,345.90
2018-09-22T05:11:25.278Z,360.70
2018-09-22T05:13:54.088Z,337.27
2018-09-22T05:16:22.532Z,319.67
2018-09-22T05:18:51.028Z,309.00
2018-09-22T05:21:19.540Z,305.10
2018-09-22T05:23:48.105Z,273.87
2018-09-22T05:26:16.643Z,286.17
2018-09-22T05:28:45.081Z,281.13
2018-09-22T05:31:13.592Z,308.50
2018-09-22T05:33:42.053Z,322.43
2018-09-22T05:36:10.574Z,313.37
2018-09-22T05:38:39.248Z,336.17
2018-09-22T05:41:07.756Z,329.03
2018-09-22T05:43:36.512Z,326.67
2018-09-22T05:46:05.019Z,322.87
2018-09-22T05:48:33.467Z,334.47
2018-09-22T05:51:01.963Z,337.90
2018-09-22T05:53:30.399Z,341.50
2018-09-22T05:55:58.878Z,333.37
2018-09-22T05:58:27.399Z,355.17
2018-09-22T06:00:55.902Z,354.17
2018-09-22T06:03:24.489Z,341.70
2018-09-22T06:05:52.918Z,339.77
2018-09-22T06:08:21.356Z,316.77
2018-09-22T06:10:49.875Z,303.33
2018-09-22T06:13:18.509Z,319.50
2018-09-22T06:15:46.959Z,299.93
2018-09-22T06:18:15.429Z,304.87
2018-09-22T06:20:43.916Z,307.13
2018-09-22T06:23:12.493Z,296.70
2018-09-22T06:25:40.895Z,291.33
2018-09-22T06:28:09.489Z,261.27
2018-09-22T06:30:38.050Z,253.53
2018-09-22T06:33:06.520Z,238.07
2018-09-22T06:35:35.005Z,254.37
2018-09-22T06:38:03.480Z,250.50
2018-09-22T06:40:31.969Z,269.10
2018-09-22T06:43:00.429Z,288.77
2018-09-22T06:45:28.917Z,290.53
2018-09-22T06:47:57.364Z,290.50
2018-09-22T06:50:25.888Z,303.43
2018-09-22T06:52:54.356Z,292.10
2018-09-22T06:55:22.879Z,320.33
2018-09-22T06:57:51.380Z,344.20
2018-09-22T07:00:19.881Z,336.00
2018-09-22T07:02:48.382Z,316.47
2018-09-22T07:05:16.831Z,293.93
2018-09-22T07:07:45.333Z,307.67
2018-09-22T07:10:13.922Z,290.43
2018-09-22T07:12:42.440Z,347.13
2018-09-22T07:15:10.961Z,412.47
2018-09-22T07:17:39.453Z,510.03
2018-09-22T07:20:08.004Z,638.43
2018-09-22T07:22:41.775Z,699.33
2018-09-22T07:25:10.285Z,732.23
2018-09-22T07:27:38.858Z,777.37
2018-09-22T07:30:07.474Z,793.63
2018-09-22T07:32:35.980Z,799.23
2018-09-22T07:35:04.511Z,784.00
2018-09-22T07:37:33.021Z,763.33
2018-09-22T07:40:01.648Z,729.93
2018-09-22T07:42:31.372Z,710.97
2018-09-22T07:44:59.894Z,709.80
2018-09-22T07:47:28.442Z,705.43
2018-09-22T07:49:56.891Z,732.10
2018-09-22T07:52:25.386Z,762.43
2018-09-22T07:54:53.846Z,761.30
2018-09-22T07:57:22.409Z,729.30
2018-09-22T07:59:50.934Z,746.87
2018-09-22T08:02:19.495Z,758.07
2018-09-22T08:04:47.978Z,789.63
2018-09-22T08:07:16.522Z,809.03
2018-09-22T08:09:44.991Z,735.60
2018-09-22T08:12:13.488Z,810.87
2018-09-22T08:14:42.305Z,829.77
2018-09-22T08:17:10.784Z,838.23
2018-09-22T08:19:39.289Z,812.97
2018-09-22T08:22:07.761Z,826.80
2018-09-22T08:24:36.236Z,778.90
2018-09-22T08:27:04.800Z,780.40
2018-09-22T08:29:33.260Z,768.60
2018-09-22T08:32:01.750Z,751.83
2018-09-22T08:34:30.304Z,757.27
2018-09-22T08:36:59.082Z,674.00
2018-09-22T08:39:27.505Z,630.27
2018-09-22T08:41:56.079Z,580.37
2018-09-22T08:44:25.483Z,586.67
2018-09-22T08:46:54.155Z,614.70
2018-09-22T08:49:22.745Z,709.37
2018-09-22T08:51:51.218Z,796.10
2018-09-22T08:54:19.749Z,813.07
2018-09-22T08:56:48.280Z,812.30
2018-09-22T08:59:16.928Z,783.93
2018-09-22T09:01:45.448Z,774.70
2018-09-22T09:04:13.995Z,821.37
2018-09-22T09:06:42.509Z,809.07
2018-09-22T09:09:11.378Z,808.33
2018-09-22T09:11:39.939Z,747.20
2018-09-22T09:14:08.946Z,745.40
2018-09-22T09:16:37.419Z,766.27
2018-09-22T09:19:06.065Z,728.57
2018-09-22T09:21:34.664Z,715.43
2018-09-22T09:24:03.290Z,760.93
2018-09-22T09:26:31.894Z,723.70
2018-09-22T09:29:00.407Z,761.07
2018-09-22T09:31:29.084Z,759.57
2018-09-22T09:33:57.644Z,760.27
2018-09-22T09:36:26.190Z,780.10
2018-09-22T09:38:59.980Z,761.83
2018-09-22T09:41:28.596Z,767.83
2018-09-22T09:43:57.189Z,760.10
2018-09-22T09:46:25.939Z,775.43
2018-09-22T09:48:54.448Z,803.50
2018-09-22T09:51:24.033Z,823.27
2018-09-22T09:53:52.615Z,817.33
2018-09-22T09:56:21.559Z,791.93
2018-09-22T09:58:50.832Z,831.17
2018-09-22T10:01:19.504Z,842.80
2018-09-22T10:03:48.162Z,851.03
2018-09-22T10:06:16.669Z,822.70
2018-09-22T10:08:45.402Z,854.20
2018-09-22T10:11:13.969Z,827.87
2018-09-22T10:13:42.629Z,815.97
2018-09-22T10:16:12.052Z,839.03
2018-09-22T10:18:40.676Z,805.00
2018-09-22T10:21:09.460Z,802.83
2018-09-22T10:23:37.955Z,793.80
2018-09-22T10:26:06.702Z,794.03
2018-09-22T10:28:35.450Z,782.47
2018-09-22T10:31:04.429Z,764.83
2018-09-22T10:33:33.359Z,765.57
2018-09-22T10:36:02.109Z,782.23
2018-09-22T10:38:30.684Z,775.97
2018-09-22T10:40:59.400Z,767.17
2018-09-22T10:43:28.127Z,768.50
2018-09-22T10:45:56.721Z,746.77
2018-09-22T10:48:25.205Z,766.63
2018-09-22T10:50:53.699Z,734.57
2018-09-22T10:53:22.283Z,738.13
2018-09-22T10:55:50.909Z,757.03
2018-09-22T10:58:19.584Z,755.27
2018-09-22T11:00:48.162Z,774.00
2018-09-22T11:03:16.810Z,748.83
2018-09-22T11:05:45.801Z,747.47
2018-09-22T11:08:14.476Z,752.37
2018-09-22T11:10:43.017Z,744.57
2018-09-22T11:13:11.581Z,740.20
2018-09-22T11:15:40.172Z,738.83
2018-09-22T11:18:08.712Z,738.03
2018-09-22T11:20:37.277Z,761.60
2018-09-22T11:34:33.653Z,797.53
2018-09-22T11:37:12.004Z,714.70
2018-09-22T11:39:46.239Z,709.33
2018-09-22T11:42:26.611Z,694.37
2018-09-22T11:45:05.452Z,697.60
2018-09-22T11:47:55.930Z,757.90
2018-09-22T11:50:29.103Z,750.40
2018-09-22T11:53:09.124Z,766.40
2018-09-22T11:55:44.708Z,780.97
2018-09-22T11:58:21.879Z,703.07
2018-09-22T12:00:55.599Z,709.37
2018-09-22T12:03:33.768Z,723.47
2018-09-22T12:06:14.368Z,721.73
2018-09-22T12:08:53.879Z,696.90
2018-09-22T12:11:28.012Z,748.40
2018-09-22T12:14:03.444Z,701.27
2018-09-22T12:16:45.176Z,709.47
2018-09-22T12:19:28.006Z,685.53
2018-09-22T12:22:07.768Z,568.67
2018-09-22T12:24:46.345Z,600.87
2018-09-22T12:27:18.044Z,685.43
2018-09-22T12:29:58.713Z,753.90
2018-09-22T12:32:37.496Z,765.13
2018-09-22T12:35:15.706Z,795.47
2018-09-22T12:37:50.095Z,786.43
2018-09-22T12:40:23.482Z,790.63
2018-09-22T12:43:00.001Z,825.77
2018-09-22T12:45:38.075Z,822.57
2018-09-22T12:48:10.993Z,835.37
2018-09-22T12:50:48.731Z,836.23
2018-09-22T12:53:22.303Z,843.53
2018-09-22T12:55:56.415Z,846.57
2018-09-22T12:58:33.017Z,857.47
2018-09-22T13:01:08.550Z,853.27
2018-09-22T13:03:44.065Z,859.27
2018-09-22T13:06:22.059Z,855.03
2018-09-22T13:08:58.003Z,848.20
2018-09-22T13:11:36.723Z,850.53
2018-09-22T13:14:06.533Z,851.73
2018-09-22T13:16:43.604Z,847.37
2018-09-22T13:19:21.793Z,842.57
2018-09-22T13:22:01.748Z,842.70
2018-09-22T13:24:44.902Z,839.00
2018-09-22T13:27:28.067Z,830.93
2018-09-22T13:30:04.278Z,855.30
2018-09-22T13:32:56.182Z,842.90
2018-09-22T13:44:29.671Z,773.50
2018-09-22T13:47:09.290Z,769.83
2018-09-22T13:49:54.066Z,783.70
2018-09-22T13:52:34.121Z,798.37
2018-09-22T13:55:25.780Z,757.73
2018-09-22T13:58:05.528Z,722.77
2018-09-22T14:00:48.323Z,744.13
2018-09-22T14:03:26.738Z,781.87
2018-09-22T14:06:13.331Z,781.20
2018-09-22T14:08:49.370Z,791.87
2018-09-22T14:11:18.124Z,742.03
2018-09-22T14:13:46.724Z,766.73
2018-09-22T14:16:15.739Z,797.13
2018-09-22T14:18:44.297Z,759.40
2018-09-22T14:21:12.935Z,769.70
2018-09-22T14:23:41.464Z,757.97
2018-09-22T14:26:20.969Z,759.63
2018-09-22T14:28:57.182Z,723.87
2018-09-22T14:31:34.681Z,746.43
2018-09-22T14:34:17.843Z,727.37
2018-09-22T14:36:55.403Z,732.57
2018-09-22T14:39:30.019Z,730.10
2018-09-22T14:42:05.264Z,744.03
2018-09-22T14:44:40.413Z,720.57
2018-09-22T14:47:19.827Z,752.57
2018-09-22T14:49:56.965Z,747.93
2018-09-22T14:52:29.572Z,728.80
2018-09-22T14:55:03.722Z,722.80
2018-09-22T14:57:39.100Z,684.97
2018-09-22T15:00:21.985Z,658.07
2018-09-22T15:03:04.335Z,639.93
2018-09-22T15:05:40.745Z,625.37
2018-09-22T15:08:20.430Z,632.37
2018-09-22T15:10:56.337Z,634.47
2018-09-22T15:13:35.739Z,610.57
2018-09-22T15:16:08.630Z,610.63
2018-09-22T15:18:50.845Z,583.93
2018-09-22T15:21:37.939Z,579.80
2018-09-22T15:30:18.694Z,647.50
2018-09-22T15:33:33.450Z,688.47
2018-09-22T15:36:45.394Z,702.03
2018-09-22T15:42:44.707Z,688.67
2018-09-22T15:45:21.352Z,672.20
2018-09-22T15:47:58.702Z,724.43
2018-09-22T15:50:40.414Z,698.80
2018-09-22T15:53:16.160Z,708.53
2018-09-22T15:55:54.593Z,710.07
2018-09-22T15:58:28.841Z,706.00
2018-09-22T16:01:10.724Z,733.93
2018-09-22T16:04:00.273Z,708.40
2018-09-22T16:06:30.479Z,671.10
2018-09-22T16:09:00.216Z,656.47
2018-09-22T16:11:29.997Z,617.30
2018-09-22T16:13:58.733Z,565.47
2018-09-22T16:16:27.272Z,548.50
2018-09-22T16:18:57.310Z,456.43
2018-09-22T16:21:28.090Z,397.77
2018-09-22T16:23:59.227Z,438.43
2018-09-22T16:26:27.928Z,415.87
2018-09-22T16:28:56.494Z,379.57
2018-09-22T16:31:25.049Z,401.70
2018-09-22T16:33:55.114Z,383.07
2018-09-22T16:36:23.740Z,408.93
2018-09-22T16:38:53.180Z,387.67
2018-09-22T16:41:21.723Z,384.40
2018-09-22T16:43:50.267Z,403.60
2018-09-22T16:46:18.866Z,405.30
2018-09-22T16:48:47.462Z,407.20
2018-09-22T16:51:15.953Z,395.30
2018-09-22T16:53:44.551Z,430.80
2018-09-22T16:56:13.068Z,443.37
2018-09-22T16:58:41.709Z,429.23
2018-09-22T17:01:10.608Z,461.07
2018-09-22T17:03:39.169Z,446.43
2018-09-22T17:06:07.756Z,441.93
2018-09-22T17:08:36.301Z,452.60
2018-09-22T17:11:04.879Z,435.47
2018-09-22T17:13:33.481Z,433.53
2018-09-22T17:16:02.036Z,445.37
2018-09-22T17:18:30.890Z,467.63
2018-09-22T17:20:59.437Z,406.73
2018-09-22T17:23:28.008Z,435.10
2018-09-22T17:25:56.528Z,432.70
2018-09-22T17:28:25.030Z,428.77
2018-09-22T17:30:53.545Z,419.47
2018-09-22T17:33:22.106Z,422.33
2018-09-22T17:35:50.592Z,436.87
2018-09-22T17:38:19.077Z,468.63
2018-09-22T17:40:47.651Z,438.10
2018-09-22T17:43:16.314Z,425.63
2018-09-22T17:45:44.796Z,442.63
2018-09-22T17:48:13.359Z,404.33
2018-09-22T17:50:41.899Z,451.03
2018-09-22T17:53:10.372Z,408.07
2018-09-22T17:55:39.844Z,399.97
2018-09-22T17:58:10.164Z,409.13
2018-09-22T18:00:45.928Z,380.77
2018-09-22T18:03:17.345Z,400.00
2018-09-22T18:05:50.001Z,424.43
2018-09-22T18:08:24.324Z,398.90
2018-09-22T18:10:55.958Z,435.77
2018-09-22T18:13:26.478Z,442.73
2018-09-22T18:15:57.215Z,464.03
2018-09-22T18:18:27.435Z,520.30
2018-09-22T18:21:05.401Z,499.97
2018-09-22T18:23:36.707Z,556.33
2018-09-22T18:26:09.860Z,654.60
2018-09-22T18:28:40.824Z,635.50
2018-09-22T18:31:10.672Z,737.17
2018-09-22T18:33:41.993Z,818.13
2018-09-22T18:36:12.365Z,782.20
2018-09-22T18:38:44.120Z,823.23
2018-09-22T18:41:14.421Z,873.50
2018-09-22T18:43:44.636Z,928.60
2018-09-22T18:46:16.443Z,923.33
2018-09-22T18:48:50.851Z,937.13
2018-09-22T18:51:21.042Z,942.60
2018-09-22T18:53:51.855Z,937.40
2018-09-22T18:56:23.423Z,914.43
2018-09-22T18:58:55.665Z,917.07
2018-09-22T19:01:29.150Z,926.43
2018-09-22T19:03:59.743Z,921.90
2018-09-22T19:06:30.867Z,907.13
2018-09-22T19:09:01.416Z,890.77
2018-09-22T19:11:34.944Z,874.27
2018-09-22T19:14:42.025Z,861.47
2018-09-22T19:19:22.629Z,853.50
2018-09-22T19:21:56.489Z,862.13
2018-09-22T19:24:30.630Z,859.83
2018-09-22T19:27:04.689Z,867.57
2018-09-22T19:29:36.867Z,856.03
2018-09-22T19:32:23.299Z,857.07
2018-09-22T19:34:56.037Z,875.03
2018-09-22T19:37:29.224Z,898.00
2018-09-22T19:40:07.712Z,915.10
2018-09-22T19:42:41.497Z,888.03
2018-09-22T19:45:13.789Z,900.67
2018-09-22T19:48:16.835Z,920.17
2018-09-22T19:50:51.592Z,877.30
2018-09-22T19:53:20.075Z,910.10
2018-09-22T19:55:48.586Z,887.93
2018-09-22T19:58:17.071Z,894.30
2018-09-22T20:00:45.603Z,881.73
2018-09-22T20:03:14.071Z,884.53
2018-09-22T20:05:42.591Z,818.47
2018-09-22T20:08:11.071Z,784.73
2018-09-22T20:10:39.574Z,753.23
2018-09-22T20:13:09.755Z,714.33
2018-09-22T20:15:38.266Z,761.43
2018-09-22T20:18:06.813Z,736.20
2018-09-22T20:20:35.573Z,762.60
2018-09-22T20:23:04.099Z,690.30
2018-09-22T20:25:32.617Z,731.50
2018-09-22T20:28:01.063Z,668.30
2018-09-22T20:30:29.620Z,742.53
2018-09-22T20:32:58.098Z,714.77
2018-09-22T20:35:26.659Z,662.73
2018-09-22T20:37:55.148Z,588.03
2018-09-22T20:40:23.661Z,500.57
2018-09-22T20:42:52.184Z,553.47
2018-09-22T20:45:20.759Z,616.20
2018-09-22T20:47:49.291Z,676.43
2018-09-22T20:50:17.797Z,670.97
2018-09-22T20:52:46.273Z,640.60
2018-09-22T20:55:14.787Z,664.67
2018-09-22T20:57:43.302Z,651.73
2018-09-22T21:00:11.860Z,632.73
2018-09-22T21:02:40.355Z,650.37
2018-09-22T21:05:08.900Z,646.00
2018-09-22T21:07:37.665Z,600.67
2018-09-22T21:10:06.456Z,578.73
2018-09-22T21:12:35.000Z,567.13
2018-09-22T21:15:03.640Z,560.20
2018-09-22T21:17:32.338Z,567.53
2018-09-22T21:20:00.819Z,560.43
2018-09-22T21:22:29.313Z,522.00
2018-09-22T21:24:57.760Z,525.67
2018-09-22T21:27:26.278Z,522.73
2018-09-22T21:29:54.868Z,511.17
2018-09-22T21:32:23.359Z,506.40
2018-09-22T21:34:51.790Z,492.07
2018-09-22T21:37:20.395Z,466.27
2018-09-22T21:39:48.838Z,443.63
2018-09-22T21:42:23.876Z,413.63
2018-09-22T21:44:52.308Z,431.80
2018-09-22T21:47:20.871Z,437.50
2018-09-22T21:49:49.341Z,433.43
2018-09-22T21:52:17.827Z,449.13
2018-09-22T21:54:46.295Z,436.33
2018-09-22T21:57:14.783Z,434.00
2018-09-22T21:59:43.260Z,452.37
2018-09-22T22:02:11.711Z,443.57
2018-09-22T22:04:40.240Z,391.67
2018-09-22T22:07:08.873Z,378.27
2018-09-22T22:09:37.328Z,401.40
2018-09-22T22:12:05.841Z,366.50
2018-09-22T22:14:34.324Z,391.47
2018-09-22T22:17:02.832Z,375.37
2018-09-22T22:19:31.360Z,396.93
2018-09-22T22:21:59.812Z,401.60
2018-09-22T22:24:28.332Z,403.50
2018-09-22T22:26:56.803Z,402.13
2018-09-22T22:29:25.300Z,398.40
2018-09-22T22:31:53.786Z,408.70
2018-09-22T22:34:22.325Z,420.83
2018-09-22T22:36:50.836Z,452.57
2018-09-22T22:39:19.352Z,447.63
2018-09-22T22:41:47.847Z,468.87
2018-09-22T22:44:16.345Z,431.97
2018-09-22T22:46:45.093Z,426.77
2018-09-22T22:49:15.761Z,397.43
2018-09-22T22:51:44.513Z,364.70
2018-09-22T22:54:12.972Z,344.50
2018-09-22T22:56:41.439Z,286.97
2018-09-22T22:59:09.982Z,289.10
2018-09-22T23:01:38.428Z,253.37
2018-09-22T23:04:12.604Z,272.03
2018-09-22T23:06:41.773Z,275.40
2018-09-22T23:09:11.026Z,262.03
2018-09-22T23:11:40.544Z,225.50
2018-09-22T23:14:09.881Z,251.23
2018-09-22T23:16:39.181Z,254.90
2018-09-22T23:19:07.733Z,293.27
2018-09-22T23:21:36.507Z,308.73
2018-09-22T23:24:05.031Z,287.47
2018-09-22T23:26:33.652Z,256.10
2018-09-22T23:29:04.115Z,278.80
2018-09-22T23:31:33.717Z,270.10
2018-09-22T23:34:02.303Z,266.90
2018-09-22T23:36:30.812Z,296.23
2018-09-22T23:38:59.343Z,262.60
2018-09-22T23:41:27.789Z,263.93
2018-09-22T23:43:57.510Z,290.67
2018-09-22T23:46:26.007Z,327.67
2018-09-22T23:48:55.700Z,321.10
2018-09-22T23:51:24.295Z,307.73
2018-09-22T23:53:52.805Z,343.03
2018-09-22T23:56:21.676Z,335.57
2018-09-22T23:58:50.216Z,336.57
